Time;durP1;ratioP1;P1;durP2;ratioP2;P2;SDS_P1;SDS_P2;PMS_P1;PMS_P2;Temp;Humidity;BMP_temperature;BMP_pressure;BME280_temperature;BME280_humidity;BME280_pressure;Samples;Min_cycle;Max_cycle;Signal;HPM_P1;HPM_P2
2021/04/14 00:01:44;;;;;;;15.13;9.05;;;;;;;1.03;100.00;103144.63;3574261;40;20041;-62
2021/04/14 00:04:10;;;;;;;14.60;8.73;;;;;;;0.93;100.00;103148.28;3572462;40;20065;-61
2021/04/14 00:06:36;;;;;;;16.45;10.45;;;;;;;0.84;100.00;103148.38;3574687;40;20057;-62
2021/04/14 00:09:03;;;;;;;16.35;9.70;;;;;;;0.84;100.00;103151.91;3573743;40;20037;-63
2021/04/14 00:11:29;;;;;;;16.15;9.68;;;;;;;0.83;100.00;103149.28;3575698;40;20283;-63
2021/04/14 00:13:55;;;;;;;15.27;9.88;;;;;;;0.88;100.00;103147.44;3573379;40;20088;-64
2021/04/14 00:16:23;;;;;;;17.73;10.05;;;;;;;0.93;100.00;103150.94;3575370;40;20396;-62
2021/04/14 00:18:49;;;;;;;16.27;10.93;;;;;;;0.98;100.00;103150.88;3573522;40;20389;-64
2021/04/14 00:21:18;;;;;;;14.98;10.38;;;;;;;0.89;100.00;103153.66;3574986;40;20041;-62
2021/04/14 00:23:44;;;;;;;19.20;10.37;;;;;;;0.86;100.00;103152.78;3575980;40;20303;-62
2021/04/14 00:26:12;;;;;;;15.85;9.95;;;;;;;0.73;100.00;103148.50;3573770;40;20665;-62
2021/04/14 00:28:38;;;;;;;16.60;9.85;;;;;;;0.73;100.00;103139.69;3573028;40;20069;-62
2021/04/14 00:31:05;;;;;;;19.30;9.65;;;;;;;0.77;100.00;103141.41;3573094;40;20041;-63
2021/04/14 00:33:31;;;;;;;12.90;9.57;;;;;;;0.85;100.00;103140.44;3573949;40;20125;-62
2021/04/14 00:35:57;;;;;;;14.85;9.73;;;;;;;0.92;100.00;103138.56;3572673;40;20047;-63
2021/04/14 00:38:23;;;;;;;21.15;10.13;;;;;;;0.86;100.00;103130.69;3573416;40;20049;-64
2021/04/14 00:40:54;;;;;;;17.45;9.43;;;;;;;0.88;100.00;103134.19;3573697;40;20049;-64
2021/04/14 00:43:24;;;;;;;13.13;9.23;;;;;;;0.94;100.00;103127.94;3573866;40;20137;-62
2021/04/14 00:45:50;;;;;;;17.13;9.57;;;;;;;0.89;100.00;103130.66;3574585;40;20045;-62
2021/04/14 00:48:16;;;;;;;16.10;9.30;;;;;;;0.85;100.00;103134.22;3573482;40;20082;-62
2021/04/14 00:50:42;;;;;;;13.57;9.00;;;;;;;0.83;100.00;103126.28;3574675;40;20045;-63
2021/04/14 00:53:09;;;;;;;12.50;9.00;;;;;;;0.86;100.00;103133.34;3573501;40;20400;-62
2021/04/14 00:55:37;;;;;;;15.55;8.93;;;;;;;0.92;100.00;103127.97;3575469;40;20149;-64
2021/04/14 00:58:05;;;;;;;13.55;8.95;;;;;;;0.94;100.00;103128.81;3574500;40;20738;-65
2021/04/14 01:00:35;;;;;;;12.75;8.77;;;;;;;0.95;100.00;103129.72;3573373;40;20053;-63
2021/04/14 01:03:01;;;;;;;12.65;9.07;;;;;;;1.00;100.00;103128.78;3573384;40;20479;-62
2021/04/14 01:05:29;;;;;;;17.85;8.50;;;;;;;0.98;100.00;103125.25;3574614;40;20434;-62
2021/04/14 01:07:55;;;;;;;13.75;8.65;;;;;;;0.93;100.00;103126.19;3575175;40;20061;-63
2021/04/14 01:10:23;;;;;;;13.40;9.32;;;;;;;0.93;100.00;103129.72;3573196;40;20052;-62
2021/04/14 01:12:49;;;;;;;12.85;8.70;;;;;;;0.96;100.00;103132.34;3575901;40;20423;-64
2021/04/14 01:15:22;;;;;;;13.38;8.60;;;;;;;0.95;100.00;103122.63;3573730;40;20067;-63
2021/04/14 01:17:49;;;;;;;13.35;9.77;;;;;;;0.97;100.00;103126.16;3576467;40;20385;-63
2021/04/14 01:20:16;;;;;;;15.35;9.23;;;;;;;1.02;100.00;103126.09;3575186;40;20037;-63
2021/04/14 01:22:43;;;;;;;15.32;9.70;;;;;;;0.99;100.00;103116.41;3576052;40;20418;-62
2021/04/14 01:25:11;;;;;;;17.65;9.73;;;;;;;1.07;100.00;103124.25;3575209;40;20057;-62
2021/04/14 01:27:37;;;;;;;15.05;9.18;;;;;;;1.12;100.00;103129.50;3576258;40;20041;-63
2021/04/14 01:30:08;;;;;;;18.45;9.15;;;;;;;1.17;100.00;103127.69;3575403;40;20037;-63
2021/04/14 01:32:34;;;;;;;13.63;9.40;;;;;;;1.23;100.00;103127.59;3575243;40;20323;-62
2021/04/14 01:35:00;;;;;;;17.88;9.75;;;;;;;1.31;100.00;103123.06;3574428;40;20059;-63
2021/04/14 01:37:26;;;;;;;16.13;10.25;;;;;;;1.28;100.00;103127.53;3576543;40;20332;-63
2021/04/14 01:39:53;;;;;;;15.35;9.45;;;;;;;1.28;100.00;103119.56;3574339;40;20047;-61
2021/04/14 01:42:19;;;;;;;15.40;9.68;;;;;;;1.30;100.00;103118.66;3574973;40;20052;-62
2021/04/14 01:44:45;;;;;;;14.00;9.73;;;;;;;1.31;100.00;103117.78;3575282;40;20427;-62
2021/04/14 01:47:11;;;;;;;11.65;8.38;;;;;;;1.45;100.00;103120.22;3576525;40;20126;-62
2021/04/14 01:49:37;;;;;;;11.70;8.65;;;;;;;1.39;100.00;103118.53;3575332;40;20057;-62
2021/04/14 01:52:03;;;;;;;13.38;9.15;;;;;;;1.35;100.00;103114.16;3576409;40;20135;-62
2021/04/14 01:54:29;;;;;;;14.68;9.43;;;;;;;1.34;100.00;103111.53;3575204;40;20049;-62
2021/04/14 01:56:56;;;;;;;14.07;9.15;;;;;;;1.31;100.00;103112.47;3576566;40;20303;-61
2021/04/14 01:59:22;;;;;;;15.82;9.65;;;;;;;1.34;100.00;103106.22;3573877;40;20049;-63
2021/04/14 02:01:48;;;;;;;17.65;9.63;;;;;;;1.37;100.00;103104.41;3574110;40;20117;-61
2021/04/14 02:04:14;;;;;;;13.52;9.13;;;;;;;1.49;100.00;103107.81;3574128;40;20281;-63
2021/04/14 02:06:40;;;;;;;14.30;8.43;;;;;;;1.53;100.00;103112.16;3575470;40;20045;-63
2021/04/14 02:09:06;;;;;;;15.05;9.18;;;;;;;1.58;100.00;103111.19;3573732;40;20045;-64
2021/04/14 02:11:32;;;;;;;16.70;9.23;;;;;;;1.60;100.00;103103.19;3576439;40;20056;-61
2021/04/14 02:13:59;;;;;;;14.88;8.77;;;;;;;1.61;100.00;103104.97;3575549;40;20114;-64
2021/04/14 02:16:25;;;;;;;14.77;9.23;;;;;;;1.62;100.00;103104.06;3575304;40;20106;-62
2021/04/14 02:18:52;;;;;;;12.00;8.77;;;;;;;1.64;100.00;103104.91;3574941;40;20064;-62
2021/04/14 02:21:19;;;;;;;13.45;9.07;;;;;;;1.64;100.00;103099.59;3585055;40;20054;-65
2021/04/14 02:23:45;;;;;;;15.27;9.32;;;;;;;1.69;100.00;103107.50;3585593;40;20455;-62
2021/04/14 02:26:13;;;;;;;16.35;9.20;;;;;;;1.74;100.00;103110.97;3585364;40;20104;-63
2021/04/14 02:28:39;;;;;;;13.93;9.30;;;;;;;1.72;100.00;103103.03;3586037;40;20085;-62
2021/04/14 02:31:08;;;;;;;13.68;9.00;;;;;;;1.69;100.00;103103.09;3586196;40;20052;-65
2021/04/14 02:33:35;;;;;;;12.52;9.43;;;;;;;1.73;100.00;103098.59;3585415;40;20050;-62
2021/04/14 02:36:01;;;;;;;13.18;8.85;;;;;;;1.78;100.00;103111.78;3586017;40;20049;-62
2021/04/14 02:38:27;;;;;;;11.93;8.82;;;;;;;1.80;100.00;103105.56;3585194;40;20134;-62
2021/04/14 02:40:53;;;;;;;10.00;7.93;;;;;;;1.72;100.00;103099.47;3583881;40;20114;-62
2021/04/14 02:43:20;;;;;;;14.80;9.70;;;;;;;1.77;100.00;103104.72;3586062;40;20056;-62
2021/04/14 02:45:46;;;;;;;14.07;9.15;;;;;;;1.71;100.00;103106.56;3584202;40;20360;-62
2021/04/14 02:48:13;;;;;;;16.40;9.90;;;;;;;1.79;100.00;103109.09;3585531;40;20088;-62
2021/04/14 02:50:39;;;;;;;13.15;8.55;;;;;;;1.80;100.00;103099.38;3584086;40;20033;-62
2021/04/14 02:53:06;;;;;;;14.50;9.77;;;;;;;1.72;100.00;103102.13;3584722;40;20047;-62
2021/04/14 02:55:33;;;;;;;14.27;9.45;;;;;;;1.72;100.00;103102.13;3586093;40;20048;-64
2021/04/14 02:57:59;;;;;;;12.32;8.70;;;;;;;1.79;100.00;103102.94;3585722;40;20117;-64
2021/04/14 03:00:26;;;;;;;12.68;8.85;;;;;;;1.81;100.00;103104.66;3583582;40;20929;-62
2021/04/14 03:02:53;;;;;;;12.68;8.82;;;;;;;1.85;100.00;103098.38;3584867;40;20062;-62
2021/04/14 03:05:24;;;;;;;15.18;8.65;;;;;;;1.79;100.00;103095.84;3583992;40;20084;-62
2021/04/14 03:07:50;;;;;;;12.32;9.48;;;;;;;1.69;100.00;103086.25;3585434;40;20080;-62
2021/04/14 03:10:16;;;;;;;12.88;9.73;;;;;;;1.64;100.00;103091.63;3583419;40;20073;-64
2021/04/14 03:12:43;;;;;;;11.00;8.73;;;;;;;1.70;100.00;103093.31;3585133;40;20083;-62
2021/04/14 03:15:13;;;;;;;11.43;8.90;;;;;;;1.69;100.00;103086.25;3585391;40;20062;-62
2021/04/14 03:17:40;;;;;;;12.23;8.90;;;;;;;1.75;100.00;103089.72;3584666;40;20044;-64
2021/04/14 03:20:07;;;;;;;11.00;8.93;;;;;;;1.72;100.00;103089.75;3583978;40;20096;-63
2021/04/14 03:22:35;;;;;;;15.20;9.15;;;;;;;1.74;100.00;103090.59;3585213;40;20052;-62
2021/04/14 03:25:01;;;;;;;15.40;9.55;;;;;;;1.86;100.00;103086.00;3584924;40;20394;-62
2021/04/14 03:27:27;;;;;;;13.88;9.38;;;;;;;1.75;100.00;103080.84;3585116;40;20079;-63
2021/04/14 03:29:53;;;;;;;13.43;8.88;;;;;;;1.61;100.00;103088.16;3585569;40;20048;-62
2021/04/14 03:32:19;;;;;;;15.57;9.93;;;;;;;1.63;100.00;103084.56;3585274;40;20056;-63
2021/04/14 03:37:17;;;;;;;13.10;9.85;;;;;;;1.63;100.00;103089.88;3566039;22;20082;-63
2021/04/14 03:39:44;;;;;;;16.20;9.85;;;;;;;1.57;100.00;103089.97;3585862;40;20056;-63
2021/04/14 03:42:10;;;;;;;15.48;10.45;;;;;;;1.34;100.00;103093.84;3584981;40;20100;-65
2021/04/14 03:44:37;;;;;;;12.10;9.85;;;;;;;1.51;100.00;103096.25;3585747;40;20315;-65
2021/04/14 03:47:04;;;;;;;15.38;9.25;;;;;;;1.52;100.00;103090.03;3585050;40;20052;-65
2021/04/14 03:49:30;;;;;;;12.80;9.00;;;;;;;1.56;100.00;103093.50;3584527;40;20087;-64
2021/04/14 03:51:56;;;;;;;16.02;10.30;;;;;;;1.58;100.00;103089.09;3585499;40;20044;-66
2021/04/14 03:54:22;;;;;;;19.55;10.02;;;;;;;1.58;100.00;103099.69;3585563;40;20183;-62
2021/04/14 03:56:50;;;;;;;14.35;9.30;;;;;;;1.40;100.00;103090.22;3584867;40;20052;-63
2021/04/14 03:59:16;;;;;;;14.05;9.55;;;;;;;1.24;100.00;103097.53;3583162;40;20049;-62
2021/04/14 04:01:42;;;;;;;16.08;10.00;;;;;;;1.22;100.00;103089.59;3584792;40;20077;-61
2021/04/14 04:04:08;;;;;;;16.08;9.77;;;;;;;1.23;100.00;103087.81;3586076;40;20425;-62
2021/04/14 04:06:34;;;;;;;15.65;9.18;;;;;;;1.04;100.00;103092.47;3585273;40;20058;-62
2021/04/14 04:09:01;;;;;;;16.15;10.02;;;;;;;1.05;100.00;103086.28;3583429;40;20048;-62
2021/04/14 04:11:27;;;;;;;14.40;10.02;;;;;;;1.00;100.00;103089.00;3584655;40;20433;-61
2021/04/14 04:13:56;;;;;;;12.73;9.93;;;;;;;0.79;100.00;103087.44;3584281;40;20041;-61
2021/04/14 04:16:22;;;;;;;;;;;;;;;0.81;100.00;103087.44;3585461;40;20356;-64
2021/04/14 04:18:49;;;;;;;14.40;10.05;;;;;;;0.77;100.00;103088.41;3585043;40;19940;-62
2021/04/14 04:21:15;;;;;;;15.38;10.20;;;;;;;0.73;100.00;103081.38;3585289;40;20076;-62
2021/04/14 04:23:41;;;;;;;14.98;11.07;;;;;;;0.75;100.00;103088.41;3584656;40;20059;-62
2021/04/14 04:26:07;;;;;;;16.25;10.93;;;;;;;0.62;100.00;103086.75;3584456;40;20064;-62
2021/04/14 04:28:33;;;;;;;15.50;10.05;;;;;;;0.64;100.00;103088.50;3583868;40;20539;-63
2021/04/14 04:31:00;;;;;;;19.05;11.23;;;;;;;0.69;100.00;103088.44;3611721;22;20064;-62
2021/04/14 04:33:26;;;;;;;19.70;10.25;;;;;;;0.54;100.00;103089.50;3584978;40;20129;-62
2021/04/14 04:35:52;;;;;;;16.65;10.57;;;;;;;0.55;100.00;103091.28;3586348;40;20100;-62
2021/04/14 04:38:18;;;;;;;15.80;10.10;;;;;;;0.59;100.00;103092.09;3584250;40;20381;-63
2021/04/14 04:40:44;;;;;;;13.60;9.57;;;;;;;0.64;100.00;103092.94;3583723;40;20311;-62
2021/04/14 04:43:10;;;;;;;14.25;9.77;;;;;;;0.76;100.00;103097.22;3591982;40;20056;-63
2021/04/14 04:45:37;;;;;;;16.60;9.95;;;;;;;0.72;100.00;103091.06;3595240;39;20464;-61
2021/04/14 04:48:04;;;;;;;14.38;10.27;;;;;;;0.58;100.00;103106.28;3594201;39;20450;-62
2021/04/14 04:50:32;;;;;;;14.90;9.15;;;;;;;0.55;100.00;103107.16;3593582;39;20056;-62
2021/04/14 04:53:00;;;;;;;13.77;9.38;;;;;;;0.72;100.00;103101.66;3594686;40;20060;-62
2021/04/14 04:55:27;;;;;;;16.38;9.73;;;;;;;0.65;100.00;103105.31;3595407;40;20073;-65
2021/04/14 04:57:53;;;;;;;12.50;9.07;;;;;;;0.75;100.00;103106.06;3594014;40;20128;-64
2021/04/14 05:00:20;;;;;;;14.77;9.90;;;;;;;0.92;100.00;103104.09;3593024;39;20048;-63
2021/04/14 05:02:47;;;;;;;20.85;9.40;;;;;;;0.82;100.00;103105.97;3594594;40;20116;-64
2021/04/14 05:05:18;;;;;;;16.80;9.65;;;;;;;0.92;100.00;103112.06;3593691;40;20041;-64
2021/04/14 05:07:44;;;;;;;16.83;10.32;;;;;;;0.93;100.00;103111.16;3594636;39;20056;-63
2021/04/14 05:10:12;;;;;;;16.67;9.75;;;;;;;0.90;100.00;103118.25;3592507;40;20052;-64
2021/04/14 05:12:38;;;;;;;15.95;10.18;;;;;;;1.04;100.00;103124.28;3593236;39;20044;-65
2021/04/14 05:15:05;;;;;;;14.52;9.25;;;;;;;1.20;100.00;103130.28;3595354;39;20036;-65
2021/04/14 05:17:31;;;;;;;13.57;9.65;;;;;;;1.44;100.00;103128.22;3595010;39;20078;-64
2021/04/14 05:19:57;;;;;;;16.23;11.02;;;;;;;1.55;100.00;103128.94;3594458;39;20418;-64
2021/04/14 05:22:24;;;;;;;15.25;10.65;;;;;;;1.23;100.00;103130.25;3595020;40;20295;-64
2021/04/14 05:24:50;;;;;;;18.85;11.35;;;;;;;1.10;100.00;103133.94;3593822;39;20028;-65
2021/04/14 05:27:16;;;;;;;19.27;11.20;;;;;;;1.15;100.00;103137.41;3595516;39;20481;-65
2021/04/14 05:29:42;;;;;;;16.75;10.10;;;;;;;1.23;100.00;103148.81;3592620;39;20047;-62
2021/04/14 05:32:09;;;;;;;18.10;10.88;;;;;;;1.16;100.00;103149.78;3591068;39;20311;-62
2021/04/14 05:34:35;;;;;;;14.23;10.05;;;;;;;1.26;100.00;103142.59;3593890;39;20067;-63
2021/04/14 05:37:01;;;;;;;19.08;11.45;;;;;;;1.37;100.00;103145.97;3590461;39;20343;-65
2021/04/14 05:39:28;;;;;;;18.02;11.35;;;;;;;1.69;100.00;103150.88;3591411;39;20055;-62
2021/04/14 05:41:54;;;;;;;16.83;11.30;;;;;;;1.74;100.00;103156.97;3594166;39;20150;-65
2021/04/14 05:44:20;;;;;;;16.13;10.85;;;;;;;1.95;100.00;103154.91;3595203;39;20807;-64
2021/04/14 05:46:46;;;;;;;14.85;10.45;;;;;;;2.19;100.00;103150.97;3596476;40;20308;-64
2021/04/14 05:49:12;;;;;;;14.75;10.27;;;;;;;2.30;100.00;103161.44;3592365;39;20044;-65
2021/04/14 05:51:38;;;;;;;13.60;9.40;;;;;;;2.36;100.00;103163.97;3594415;39;20383;-63
2021/04/14 05:54:04;;;;;;;13.18;10.15;;;;;;;2.57;100.00;103156.53;3594626;39;20036;-63
2021/04/14 05:56:31;;;;;;;14.02;9.55;;;;;;;2.73;100.00;103158.00;3594918;39;20068;-63
2021/04/14 05:58:58;;;;;;;14.82;9.75;;;;;;;2.96;100.00;103159.38;3593486;39;20326;-62
2021/04/14 06:01:26;;;;;;;14.07;10.27;;;;;;;3.13;100.00;103145.69;3595661;39;20067;-65
2021/04/14 06:03:53;;;;;;;14.20;10.00;;;;;;;3.43;100.00;103156.59;3596465;40;20051;-63
2021/04/14 06:06:20;;;;;;;13.52;10.38;;;;;;;3.74;100.00;103164.81;3596082;40;20395;-65
2021/04/14 06:08:46;;;;;;;15.75;9.73;;;;;;;3.90;100.00;103159.13;3594706;40;20036;-65
2021/04/14 06:11:12;;;;;;;15.52;9.23;;;;;;;4.04;100.00;103159.66;3596137;39;20394;-66
2021/04/14 06:13:39;;;;;;;14.85;9.82;;;;;;;4.06;100.00;103159.63;3596548;40;20056;-66
2021/04/14 06:16:07;;;;;;;14.27;10.15;;;;;;;4.19;100.00;103161.94;3595562;40;20106;-62
2021/04/14 06:18:33;;;;;;;14.45;10.82;;;;;;;4.28;100.00;103166.16;3590734;40;20080;-62
2021/04/14 06:21:01;;;;;;;13.43;10.38;;;;;;;4.37;100.00;103159.72;3589671;39;20048;-62
2021/04/14 06:23:27;;;;;;;14.68;9.85;;;;;;;4.50;100.00;103166.50;3595140;39;20059;-63
2021/04/14 06:25:59;;;;;;;15.00;10.40;;;;;;;4.54;100.00;103160.19;3596654;39;20149;-62
2021/04/14 06:28:26;;;;;;;19.30;11.43;;;;;;;4.42;100.00;103163.19;3596401;40;21001;-63
2021/04/14 06:30:53;;;;;;;12.93;10.07;;;;;;;4.26;100.00;103169.81;3596020;39;20075;-62
2021/04/14 06:33:21;;;;;;;16.73;10.55;;;;;;;4.24;100.00;103166.28;3596444;39;20255;-64
2021/04/14 06:35:47;;;;;;;20.80;12.20;;;;;;;3.89;100.00;103168.91;3596386;39;20063;-65
2021/04/14 06:38:16;;;;;;;17.65;11.68;;;;;;;3.92;100.00;103175.97;3594907;39;20052;-62
2021/04/14 06:41:05;;;;;;;19.40;10.32;;;;;;;4.14;100.00;103163.88;3594888;40;20044;-65
2021/04/14 06:43:40;;;;;;;18.02;10.75;;;;;;;4.30;100.00;103168.81;3647708;22;20044;-64
2021/04/14 06:46:12;;;;;;;14.75;9.90;;;;;;;4.37;100.00;103165.06;3583701;40;20060;-63
2021/04/14 06:48:48;;;;;;;13.20;9.50;;;;;;;4.29;100.00;103169.72;3581766;40;20133;-62
2021/04/14 06:51:20;;;;;;;12.90;8.88;;;;;;;4.30;100.00;103174.13;3584833;40;20058;-63
2021/04/14 06:53:59;;;;;;;12.77;7.90;;;;;;;4.51;100.00;103168.25;3585319;40;20048;-63
2021/04/14 06:56:25;;;;;;;15.35;8.13;;;;;;;4.59;100.00;103164.53;3585168;40;20048;-65
2021/04/14 06:58:59;;;;;;;15.23;8.05;;;;;;;4.64;100.00;103167.94;3585331;40;20363;-65
2021/04/14 07:01:32;;;;;;;15.15;7.47;;;;;;;4.73;100.00;103170.38;3584584;40;20040;-64
2021/04/14 07:04:08;;;;;;;8.68;5.65;;;;;;;4.93;100.00;103169.81;3586031;40;20053;-64
2021/04/14 07:06:37;;;;;;;10.63;6.10;;;;;;;5.00;100.00;103165.19;3586383;40;20059;-65
2021/04/14 07:09:11;;;;;;;9.63;5.47;;;;;;;5.01;100.00;103165.16;3584615;40;20084;-63
2021/04/14 07:11:38;;;;;;;13.00;6.30;;;;;;;5.14;100.00;103160.34;3585677;40;20431;-64
2021/04/14 07:14:05;;;;;;;7.45;4.43;;;;;;;5.14;100.00;103163.00;3585774;40;20057;-65
2021/04/14 07:16:42;;;;;;;11.68;5.15;;;;;;;5.32;100.00;103164.28;3586234;40;20126;-63
2021/04/14 07:19:19;;;;;;;9.18;4.53;;;;;;;5.48;100.00;103167.38;3584434;40;20056;-63
2021/04/14 07:21:49;;;;;;;9.85;4.60;;;;;;;5.64;100.00;103157.09;3585172;40;20040;-63
2021/04/14 07:24:24;;;;;;;7.18;4.35;;;;;;;5.76;100.00;103155.84;3584642;40;20233;-63
2021/04/14 07:26:58;;;;;;;7.53;3.80;;;;;;;5.81;100.00;103156.53;3584221;40;20052;-63
2021/04/14 07:29:33;;;;;;;5.20;2.88;;;;;;;5.96;100.00;103150.72;3584872;40;20415;-63
2021/04/14 07:32:10;;;;;;;4.93;2.90;;;;;;;6.04;100.00;103153.19;3584550;40;20129;-63
2021/04/14 07:34:46;;;;;;;6.28;2.63;;;;;;;6.00;100.00;103161.34;3585420;40;20047;-64
2021/04/14 07:37:19;;;;;;;6.53;2.05;;;;;;;5.95;100.00;103157.00;3583598;40;20032;-63
2021/04/14 07:39:54;;;;;;;6.15;2.72;;;;;;;6.21;100.00;103160.63;3583081;40;20308;-64
2021/04/14 07:42:26;;;;;;;3.80;1.63;;;;;;;6.38;100.00;103154.72;3584800;40;20060;-65
2021/04/14 07:45:06;;;;;;;4.30;1.52;;;;;;;6.46;100.00;103162.47;3585370;40;20074;-65
2021/04/14 07:47:34;;;;;;;4.43;2.05;;;;;;;6.09;100.00;103159.22;3582952;40;20054;-63
2021/04/14 07:50:01;;;;;;;7.05;2.33;;;;;;;6.08;100.00;103157.50;3584048;40;20342;-64
2021/04/14 07:52:29;;;;;;;5.07;2.50;;;;;;;6.18;100.00;103163.41;3582229;40;20048;-68
2021/04/14 07:54:56;;;;;;;4.78;2.30;;;;;;;6.47;100.00;103161.56;3584491;40;20126;-64
2021/04/14 07:57:29;;;;;;;2.97;1.20;;;;;;;6.45;100.00;103160.75;3584036;40;20064;-63
2021/04/14 07:59:55;;;;;;;3.08;1.00;;;;;;;6.54;100.00;103160.44;3584607;40;20060;-66
2021/04/14 08:02:33;;;;;;;3.35;1.30;;;;;;;6.93;100.00;103169.78;3583748;40;20146;-63
2021/04/14 08:05:11;;;;;;;4.13;1.10;;;;;;;6.92;100.00;103165.34;3584320;40;20129;-67
2021/04/14 08:07:41;;;;;;;2.75;1.08;;;;;;;7.04;100.00;103164.00;3584067;40;20056;-64
2021/04/14 08:10:11;;;;;;;3.00;1.40;;;;;;;6.84;100.00;103168.28;3583959;40;20060;-63
2021/04/14 08:12:49;;;;;;;5.80;2.15;;;;;;;7.12;100.00;103162.81;3584379;40;20056;-69
2021/04/14 08:15:18;;;;;;;5.95;2.60;;;;;;;7.01;100.00;103163.22;3583879;40;20169;-63
2021/04/14 08:17:46;;;;;;;3.22;2.13;;;;;;;7.23;100.00;103165.09;3584125;40;20032;-63
2021/04/14 08:20:16;;;;;;;3.10;1.40;;;;;;;6.87;100.00;103168.19;3582096;40;20047;-63
2021/04/14 08:22:43;;;;;;;7.75;2.25;;;;;;;7.05;100.00;103165.78;3584799;40;20418;-67
2021/04/14 08:25:11;;;;;;;8.27;2.17;;;;;;;7.38;100.00;103160.97;3582884;40;20051;-69
2021/04/14 08:27:44;;;;;;;5.77;2.60;;;;;;;7.45;100.00;103165.16;3584821;40;20402;-64
2021/04/14 08:30:16;;;;;;;4.03;2.13;;;;;;;7.65;100.00;103167.03;3582244;40;20613;-65
2021/04/14 08:32:56;;;;;;;5.13;2.45;;;;;;;7.89;100.00;103164.31;3584604;40;20040;-64
2021/04/14 08:35:26;;;;;;;;;;;;;;;7.87;100.00;103166.19;3584008;40;20076;-66
2021/04/14 08:37:59;;;;;;;4.07;1.90;;;;;;;7.83;100.00;103164.56;3584481;40;19932;-63
2021/04/14 08:40:27;;;;;;;5.75;2.05;;;;;;;7.62;98.13;103168.97;3584259;40;20044;-64
2021/04/14 08:42:55;;;;;;;5.07;2.00;;;;;;;7.18;99.93;103167.06;3584618;40;20046;-64
2021/04/14 08:45:27;;;;;;;4.72;2.08;;;;;;;7.26;100.00;103164.09;3584025;40;20043;-69
2021/04/14 08:50:53;;;;;;;2.75;1.40;;;;;;;6.86;100.00;103160.22;3618974;22;20039;-64
2021/04/14 08:53:23;;;;;;;4.57;1.60;;;;;;;7.18;100.00;103157.25;3593812;40;20058;-70
2021/04/14 08:55:50;;;;;;;1.80;1.30;;;;;;;7.63;100.00;103162.69;3594129;40;20054;-63
2021/04/14 08:58:20;;;;;;;6.93;1.60;;;;;;;7.76;92.01;103157.72;3590640;40;20428;-64
2021/04/14 09:00:47;;;;;;;3.25;1.40;;;;;;;7.93;88.83;103159.72;3592015;40;20067;-64
2021/04/14 09:03:17;;;;;;;2.33;1.40;;;;;;;8.22;87.17;103158.53;3590728;40;20048;-63
2021/04/14 09:05:45;;;;;;;4.65;1.50;;;;;;;8.30;82.78;103159.06;3594028;40;20068;-69
2021/04/14 09:08:17;;;;;;;3.00;1.45;;;;;;;8.37;79.43;103160.53;3592538;40;20054;-63
2021/04/14 09:10:51;;;;;;;2.85;1.65;;;;;;;8.58;81.10;103157.91;3594711;40;20437;-62
2021/04/14 09:13:30;;;;;;;4.65;1.90;;;;;;;8.71;81.11;103158.25;3593627;40;20041;-63
2021/04/14 09:15:58;;;;;;;4.45;1.85;;;;;;;8.26;80.57;103157.47;3592466;40;20144;-64
2021/04/14 09:18:28;;;;;;;4.50;1.77;;;;;;;8.38;80.05;103161.44;3594508;39;20070;-67
2021/04/14 09:21:16;;;;;;;2.95;2.03;;;;;;;8.44;81.94;103165.69;3596007;40;20409;-64
2021/04/14 09:23:56;;;;;;;3.58;1.67;;;;;;;8.44;76.96;103160.31;3594617;40;20044;-68
2021/04/14 09:26:29;;;;;;;3.10;1.80;;;;;;;8.25;75.70;103161.94;3595339;40;20072;-63
2021/04/14 09:28:56;;;;;;;4.65;1.92;;;;;;;8.38;78.16;103156.94;3595035;40;20056;-63
2021/04/14 09:31:39;;;;;;;4.57;1.90;;;;;;;8.72;78.82;103160.88;3595777;40;20046;-63
2021/04/14 09:34:17;;;;;;;4.40;2.00;;;;;;;8.49;76.85;103158.31;3594969;40;20055;-64
2021/04/14 09:36:48;;;;;;;3.95;1.90;;;;;;;8.35;75.53;103157.06;3595092;40;20138;-65
2021/04/14 09:39:30;;;;;;;4.25;1.42;;;;;;;8.46;76.61;103163.81;3593953;40;20278;-64
2021/04/14 09:41:56;;;;;;;3.05;1.58;;;;;;;8.72;70.75;103147.44;3593355;39;20051;-64
2021/04/14 09:44:36;;;;;;;3.60;1.65;;;;;;;8.83;72.47;103151.47;3594703;40;20046;-65
2021/04/14 09:47:33;;;;;;;5.78;1.50;;;;;;;8.33;72.34;103158.97;3594248;40;20160;-65
2021/04/14 09:50:01;;;;;;;3.70;1.27;;;;;;;8.54;70.92;103156.34;3594268;40;20051;-63
2021/04/14 09:52:30;;;;;;;3.17;1.50;;;;;;;8.99;70.33;103152.53;3594217;40;20050;-63
2021/04/14 09:55:09;;;;;;;5.65;1.48;;;;;;;9.16;66.09;103137.44;3595423;40;20521;-63
2021/04/14 09:57:39;;;;;;;3.38;1.33;;;;;;;9.23;65.09;103146.97;3595513;40;20336;-67
2021/04/14 10:00:13;;;;;;;4.03;1.58;;;;;;;9.40;67.11;103151.56;3595265;40;20052;-65
2021/04/14 10:02:39;;;;;;;2.90;1.40;;;;;;;9.59;70.82;103147.06;3595942;40;20084;-66
2021/04/14 10:05:06;;;;;;;2.58;1.38;;;;;;;9.49;62.79;103148.44;3595336;40;20079;-67
2021/04/14 10:07:35;;;;;;;2.83;1.20;;;;;;;8.96;64.82;103141.94;3595928;40;20070;-69
2021/04/14 10:10:08;;;;;;;2.45;1.20;;;;;;;8.94;62.59;103149.19;3595428;40;20322;-64
2021/04/14 10:12:34;;;;;;;2.17;0.77;;;;;;;8.81;60.55;103148.00;3591393;39;20117;-64
2021/04/14 10:15:02;;;;;;;2.00;0.90;;;;;;;9.05;57.71;103135.25;3594941;40;20046;-65
2021/04/14 10:17:30;;;;;;;3.88;1.15;;;;;;;9.36;57.35;103137.38;3595481;40;20046;-63
2021/04/14 10:20:06;;;;;;;2.58;0.90;;;;;;;8.85;57.73;103141.53;3594201;40;20036;-68
2021/04/14 10:22:37;;;;;;;1.00;0.60;;;;;;;8.68;57.98;103137.78;3596414;40;20413;-65
2021/04/14 10:25:08;;;;;;;2.13;0.80;;;;;;;8.30;59.91;103136.72;3595814;40;20040;-67
2021/04/14 10:27:35;;;;;;;3.10;0.93;;;;;;;7.97;63.22;103145.25;3595575;40;20116;-63
2021/04/14 10:30:05;;;;;;;1.83;0.82;;;;;;;8.28;64.69;103134.13;3596091;39;20051;-71
2021/04/14 10:32:32;;;;;;;5.00;0.80;;;;;;;8.21;63.14;103138.00;3595520;40;20056;-67
2021/04/14 10:35:06;;;;;;;3.83;0.77;;;;;;;7.81;65.69;103145.88;3596081;40;20064;-65
2021/04/14 10:37:41;;;;;;;4.72;1.20;;;;;;;7.85;70.80;103143.94;3595759;40;20040;-64
2021/04/14 10:40:18;;;;;;;7.15;1.05;;;;;;;7.30;74.03;103139.84;3594163;40;20358;-63
2021/04/14 10:42:45;;;;;;;5.00;1.10;;;;;;;7.40;71.99;103134.97;3595836;40;20125;-64
2021/04/14 10:45:13;;;;;;;4.47;1.10;;;;;;;7.39;73.81;103138.59;3594950;40;20063;-67
2021/04/14 10:47:41;;;;;;;4.75;1.27;;;;;;;7.44;72.71;103141.09;3596720;40;20048;-66
2021/04/14 10:50:16;;;;;;;3.15;1.15;;;;;;;7.66;76.11;103139.31;3595408;40;20086;-67
2021/04/14 10:52:44;;;;;;;4.68;1.02;;;;;;;7.75;72.90;103153.31;3595529;40;20036;-68
2021/04/14 10:55:15;;;;;;;4.18;0.85;;;;;;;7.58;72.92;103141.41;3595604;40;20060;-64
2021/04/14 10:57:44;;;;;;;3.67;0.95;;;;;;;7.71;74.55;103140.03;3595021;40;20060;-64
2021/04/14 11:00:15;;;;;;;3.95;1.00;;;;;;;7.91;71.92;103140.16;3594737;40;20052;-65
2021/04/14 11:02:46;;;;;;;1.50;0.90;;;;;;;8.13;69.31;103134.78;3596285;40;20043;-70
2021/04/14 11:05:14;;;;;;;2.17;0.60;;;;;;;8.38;65.85;103131.94;3595681;40;20051;-64
2021/04/14 11:07:42;;;;;;;2.10;0.70;;;;;;;8.57;59.87;103126.66;3595449;40;20076;-64
2021/04/14 11:10:12;;;;;;;1.90;0.70;;;;;;;9.18;56.36;103122.16;3594420;40;20098;-64
2021/04/14 11:12:44;;;;;;;4.15;1.00;;;;;;;8.71;58.37;103126.91;3595738;40;20388;-64
2021/04/14 11:15:14;;;;;;;5.13;0.90;;;;;;;8.74;59.55;103129.44;3595254;40;20379;-70
2021/04/14 11:17:40;;;;;;;;;;;;;;;8.80;60.10;103117.56;3596521;40;20040;-63
2021/04/14 11:20:09;;;;;;;2.60;0.80;;;;;;;8.66;61.57;103120.88;3594931;40;19936;-66
2021/04/14 11:22:43;;;;;;;5.15;1.13;;;;;;;8.74;64.03;103121.41;3595330;40;20036;-66
2021/04/14 11:25:22;;;;;;;3.75;1.10;;;;;;;8.70;65.63;103117.13;3595003;40;20052;-63
2021/04/14 11:27:58;;;;;;;3.20;0.93;;;;;;;8.75;66.01;103108.88;3594542;40;20084;-64
2021/04/14 11:30:25;;;;;;;4.78;1.38;;;;;;;8.73;68.38;103108.03;3595833;40;20048;-64
2021/04/14 11:32:53;;;;;;;3.20;1.05;;;;;;;8.69;68.95;103107.31;3595517;40;20414;-64
2021/04/14 11:35:31;;;;;;;5.35;1.20;;;;;;;9.01;70.34;103106.78;3593130;40;20103;-66